createdAt,value
2019-02-26T00:00:42.383Z,1004.38
2019-02-26T00:01:37.474Z,1004.37
2019-02-26T00:02:38.276Z,1004.36
2019-02-26T00:03:37.471Z,1004.36
2019-02-26T00:04:37.373Z,1004.38
2019-02-26T00:05:37.517Z,1004.35
2019-02-26T00:06:37.369Z,1004.36
2019-02-26T00:07:37.354Z,1004.30
2019-02-26T00:08:37.258Z,1004.36
2019-02-26T00:09:37.411Z,1004.29
2019-02-26T00:10:39.134Z,1004.27
2019-02-26T00:11:38.407Z,1004.25
2019-02-26T00:12:37.284Z,1004.27
2019-02-26T00:13:39.225Z,1004.28
2019-02-26T00:14:37.250Z,1004.30
2019-02-26T00:15:40.491Z,1004.32
2019-02-26T00:16:39.740Z,1004.35
2019-02-26T00:17:40.456Z,1004.29
2019-02-26T00:18:37.175Z,1004.27
2019-02-26T00:19:37.138Z,1004.26
2019-02-26T00:20:39.092Z,1004.22
2019-02-26T00:21:37.693Z,1004.24
2019-02-26T00:22:38.888Z,1004.29
2019-02-26T00:23:37.690Z,1004.26
2019-02-26T00:24:37.702Z,1004.23
2019-02-26T00:25:37.182Z,1004.18
2019-02-26T00:26:38.454Z,1004.21
2019-02-26T00:27:37.012Z,1004.17
2019-02-26T00:28:39.100Z,1004.14
2019-02-26T00:29:37.035Z,1004.09
2019-02-26T00:30:37.933Z,1004.11
2019-02-26T00:31:38.706Z,1004.10
2019-02-26T00:32:38.346Z,1004.09
2019-02-26T00:33:36.896Z,1004.08
2019-02-26T00:34:38.588Z,1004.14
2019-02-26T00:35:36.947Z,1004.07
2019-02-26T00:36:38.170Z,1004.09
2019-02-26T00:37:36.869Z,1004.08
2019-02-26T00:38:37.768Z,1004.04
2019-02-26T00:39:36.851Z,1004.06
2019-02-26T00:40:38.777Z,1004.04
2019-02-26T00:41:36.862Z,1004.03
2019-02-26T00:42:36.740Z,1003.99
2019-02-26T00:43:37.014Z,1004.02
2019-02-26T00:44:37.298Z,1003.97
2019-02-26T00:45:44.378Z,1004.00
2019-02-26T00:47:33.891Z,1003.99
2019-02-26T00:48:31.521Z,1003.95
2019-02-26T00:49:34.807Z,1003.92
2019-02-26T00:50:31.014Z,1003.94
2019-02-26T00:51:30.121Z,1003.96
2019-02-26T00:52:30.502Z,1003.98
2019-02-26T00:53:30.742Z,1003.98
2019-02-26T00:54:31.931Z,1003.98
2019-02-26T00:55:32.170Z,1003.99
2019-02-26T00:56:36.365Z,1003.98
2019-02-26T00:57:31.718Z,1003.94
2019-02-26T00:58:32.072Z,1003.94
2019-02-26T00:59:30.101Z,1003.95
2019-02-26T01:00:30.877Z,1003.96
2019-02-26T01:01:34.737Z,1003.97
2019-02-26T01:02:29.924Z,1003.97
2019-02-26T01:03:29.895Z,1003.94
2019-02-26T01:04:31.681Z,1004.00
2019-02-26T01:05:29.753Z,1003.99
2019-02-26T01:06:33.420Z,1004.01
2019-02-26T01:07:32.588Z,1004.00
2019-02-26T01:08:29.921Z,1003.99
2019-02-26T01:09:31.735Z,1004.01
2019-02-26T01:10:29.699Z,1003.94
2019-02-26T01:11:30.273Z,1003.96
2019-02-26T01:12:30.978Z,1003.96
2019-02-26T01:13:30.155Z,1003.96
2019-02-26T01:14:29.666Z,1003.97
2019-02-26T01:15:29.756Z,1003.91
2019-02-26T01:16:31.386Z,1003.91
2019-02-26T01:17:31.098Z,1003.93
2019-02-26T01:18:29.621Z,1003.88
2019-02-26T01:19:29.789Z,1003.90
2019-02-26T01:20:31.502Z,1003.90
2019-02-26T01:21:31.135Z,1003.94
2019-02-26T01:22:31.083Z,1003.93
2019-02-26T01:23:32.054Z,1003.86
2019-02-26T01:24:31.025Z,1003.88
2019-02-26T01:25:29.638Z,1003.86
2019-02-26T01:26:31.134Z,1003.85
2019-02-26T01:27:29.495Z,1003.82
2019-02-26T01:28:29.646Z,1003.81
2019-02-26T01:29:29.944Z,1003.79
2019-02-26T01:30:35.662Z,1003.76
2019-02-26T01:31:31.314Z,1003.79
2019-02-26T01:32:29.470Z,1003.81
2019-02-26T01:33:30.304Z,1003.75
2019-02-26T01:34:29.467Z,1003.76
2019-02-26T01:35:30.778Z,1003.78
2019-02-26T01:36:30.173Z,1003.78
2019-02-26T01:37:29.953Z,1003.76
2019-02-26T01:38:29.349Z,1003.77
2019-02-26T01:39:29.294Z,1003.71
2019-02-26T01:40:29.309Z,1003.77
2019-02-26T01:41:29.374Z,1003.79
2019-02-26T01:42:31.212Z,1003.80
2019-02-26T01:43:30.672Z,1003.73
2019-02-26T01:44:32.326Z,1003.76
2019-02-26T01:45:32.376Z,1003.79
2019-02-26T01:46:30.085Z,1003.80
2019-02-26T01:47:29.167Z,1003.82
2019-02-26T01:48:29.997Z,1003.78
2019-02-26T01:49:31.073Z,1003.78
2019-02-26T01:50:30.878Z,1003.79
2019-02-26T01:51:29.091Z,1003.78
2019-02-26T01:52:29.172Z,1003.75
2019-02-26T01:53:29.000Z,1003.72
2019-02-26T01:54:30.498Z,1003.70
2019-02-26T01:55:29.141Z,1003.75
2019-02-26T01:56:30.803Z,1003.75
2019-02-26T01:57:28.983Z,1003.80
2019-02-26T01:59:33.578Z,1003.80
2019-02-26T02:00:29.208Z,1003.82
2019-02-26T02:01:29.649Z,1003.84
2019-02-26T02:02:30.279Z,1003.87
2019-02-26T02:03:30.221Z,1003.88
2019-02-26T02:04:34.204Z,1003.80
2019-02-26T02:05:30.893Z,1003.83
2019-02-26T02:06:30.333Z,1003.86
2019-02-26T02:07:30.593Z,1003.90
2019-02-26T02:08:31.767Z,1003.88
2019-02-26T02:09:28.881Z,1003.96
2019-02-26T02:10:28.702Z,1003.94
2019-02-26T02:11:31.001Z,1003.96
2019-02-26T02:12:30.124Z,1004.00
2019-02-26T02:13:30.649Z,1003.99
2019-02-26T02:14:33.342Z,1004.06
2019-02-26T02:15:28.713Z,1004.09
2019-02-26T02:16:29.593Z,1004.08
2019-02-26T02:17:30.926Z,1004.11
2019-02-26T02:18:29.877Z,1004.17
2019-02-26T02:19:30.144Z,1004.24
2019-02-26T02:20:29.341Z,1004.24
2019-02-26T02:21:30.953Z,1004.30
2019-02-26T02:22:29.604Z,1004.21
2019-02-26T02:23:30.252Z,1004.26
2019-02-26T02:24:28.616Z,1004.25
2019-02-26T02:25:31.063Z,1004.23
2019-02-26T02:26:29.307Z,1004.22
2019-02-26T02:27:31.052Z,1004.21
2019-02-26T02:28:29.227Z,1004.18
2019-02-26T02:29:28.630Z,1004.25
2019-02-26T02:30:31.406Z,1004.23
2019-02-26T02:31:43.343Z,1004.29
2019-02-26T02:32:39.537Z,1004.34
2019-02-26T02:33:30.004Z,1004.38
2019-02-26T02:34:30.171Z,1004.44
2019-02-26T02:35:31.166Z,1004.40
2019-02-26T02:36:28.470Z,1004.47
2019-02-26T02:37:30.006Z,1004.46
2019-02-26T02:38:28.297Z,1004.48
2019-02-26T02:39:29.322Z,1004.51
2019-02-26T02:40:28.184Z,1004.52
2019-02-26T02:41:33.569Z,1004.56
2019-02-26T02:42:28.246Z,1004.53
2019-02-26T02:43:28.843Z,1004.49
2019-02-26T02:44:28.920Z,1004.43
2019-02-26T02:45:32.733Z,1004.47
2019-02-26T02:47:30.719Z,1004.50
2019-02-26T02:48:28.298Z,1004.45
2019-02-26T02:49:36.268Z,1004.48
2019-02-26T02:50:28.101Z,1004.41
2019-02-26T02:51:30.685Z,1004.43
2019-02-26T02:52:30.412Z,1004.49
2019-02-26T02:53:29.806Z,1004.46
2019-02-26T02:54:30.865Z,1004.50
2019-02-26T02:55:28.002Z,1004.48
2019-02-26T02:56:33.400Z,1004.56
2019-02-26T02:57:30.010Z,1004.55
2019-02-26T02:58:28.649Z,1004.63
2019-02-26T02:59:34.068Z,1004.70
2019-02-26T03:00:32.263Z,1004.75
2019-02-26T03:01:30.818Z,1004.77
2019-02-26T03:02:28.678Z,1004.76
2019-02-26T03:03:27.983Z,1004.84
2019-02-26T03:04:29.068Z,1004.82
2019-02-26T03:05:31.357Z,1004.89
2019-02-26T03:06:30.173Z,1004.91
2019-02-26T03:07:38.898Z,1004.95
2019-02-26T03:08:27.833Z,1004.98
2019-02-26T03:09:27.915Z,1004.97
2019-02-26T03:10:30.834Z,1004.98
2019-02-26T03:12:27.751Z,1004.91
2019-02-26T03:13:28.060Z,1004.96
2019-02-26T03:14:29.989Z,1004.96
2019-02-26T03:15:33.150Z,1004.97
2019-02-26T03:16:32.359Z,1005.02
2019-02-26T03:17:27.646Z,1005.04
2019-02-26T03:18:34.107Z,1005.07
2019-02-26T03:19:29.628Z,1005.08
2019-02-26T03:20:28.651Z,1005.13
2019-02-26T03:21:30.627Z,1005.10
2019-02-26T03:22:28.327Z,1005.09
2019-02-26T03:23:27.442Z,1005.06
2019-02-26T03:24:30.636Z,1005.07
2019-02-26T03:25:29.123Z,1005.07
2019-02-26T03:27:28.383Z,1005.09
2019-02-26T03:28:44.426Z,1005.14
2019-02-26T03:29:27.471Z,1005.12
2019-02-26T03:30:32.801Z,1005.10
2019-02-26T03:31:33.881Z,1005.09
2019-02-26T03:32:27.424Z,1005.12
2019-02-26T03:33:27.294Z,1005.16
2019-02-26T03:34:27.235Z,1005.18
2019-02-26T03:35:27.515Z,1005.13
2019-02-26T03:36:45.077Z,1005.24
2019-02-26T03:37:28.794Z,1005.22
2019-02-26T03:38:28.875Z,1005.20
2019-02-26T03:39:27.493Z,1005.20
2019-02-26T03:40:29.971Z,1005.20
2019-02-26T03:41:31.248Z,1005.18
2019-02-26T03:42:27.212Z,1005.22
2019-02-26T03:43:28.816Z,1005.19
2019-02-26T03:44:30.241Z,1005.26
2019-02-26T03:45:27.405Z,1005.27
2019-02-26T03:46:27.350Z,1005.25
2019-02-26T03:47:27.263Z,1005.34
2019-02-26T03:48:38.273Z,1005.33
2019-02-26T03:49:31.822Z,1005.34
2019-02-26T03:50:28.400Z,1005.35
2019-02-26T03:51:28.654Z,1005.36
2019-02-26T03:52:48.235Z,1005.38
2019-02-26T03:53:30.413Z,1005.40
2019-02-26T03:54:27.075Z,1005.49
2019-02-26T03:55:31.733Z,1005.43
2019-02-26T03:56:27.079Z,1005.45
2019-02-26T03:57:27.236Z,1005.44
2019-02-26T03:58:41.856Z,1005.43
2019-02-26T03:59:29.726Z,1005.46
2019-02-26T04:00:27.060Z,1005.46
2019-02-26T04:01:26.912Z,1005.46
2019-02-26T04:02:43.305Z,1005.46
2019-02-26T04:03:26.988Z,1005.47
2019-02-26T04:04:30.472Z,1005.46
2019-02-26T04:05:27.869Z,1005.49
2019-02-26T04:06:26.841Z,1005.48
2019-02-26T04:07:28.352Z,1005.50
2019-02-26T04:08:27.773Z,1005.58
2019-02-26T04:09:26.949Z,1005.63
2019-02-26T04:13:05.312Z,1005.68
2019-02-26T04:14:00.454Z,1005.68
2019-02-26T04:15:00.790Z,1005.70
2019-02-26T04:17:03.018Z,1005.74
2019-02-26T04:18:00.310Z,1005.78
2019-02-26T04:19:00.203Z,1005.76
2019-02-26T04:20:02.689Z,1005.76
2019-02-26T04:21:03.693Z,1005.77
2019-02-26T04:22:00.288Z,1005.77
2019-02-26T04:23:00.141Z,1005.76
2019-02-26T04:24:01.061Z,1005.75
2019-02-26T04:25:04.569Z,1005.72
2019-02-26T04:26:01.757Z,1005.74
2019-02-26T04:27:00.208Z,1005.79
2019-02-26T04:28:02.626Z,1005.79
2019-02-26T04:29:02.793Z,1005.79
2019-02-26T04:29:59.959Z,1005.80
2019-02-26T04:31:02.473Z,1005.83
2019-02-26T04:31:59.977Z,1005.84
2019-02-26T04:33:06.567Z,1005.83
2019-02-26T04:34:04.939Z,1005.87
2019-02-26T04:35:02.462Z,1005.85
2019-02-26T04:36:00.102Z,1005.81
2019-02-26T04:37:01.570Z,1005.84
2019-02-26T04:38:01.076Z,1005.83
2019-02-26T04:39:00.831Z,1005.85
2019-02-26T04:40:01.598Z,1005.91
2019-02-26T04:41:00.448Z,1005.91
2019-02-26T04:41:59.929Z,1005.96
2019-02-26T04:43:01.854Z,1005.94
2019-02-26T04:44:01.285Z,1006.00
2019-02-26T04:45:04.919Z,1005.97
2019-02-26T04:46:04.643Z,1005.93
2019-02-26T04:47:00.383Z,1005.94
2019-02-26T04:48:06.508Z,1005.97
2019-02-26T04:49:02.233Z,1005.95
2019-02-26T04:50:00.677Z,1006.03
2019-02-26T04:51:00.483Z,1006.09
2019-02-26T04:52:02.051Z,1006.08
2019-02-26T04:53:02.039Z,1006.12
2019-02-26T04:54:02.012Z,1006.15
2019-02-26T04:55:01.384Z,1006.20
2019-02-26T04:56:00.456Z,1006.24
2019-02-26T04:56:59.585Z,1006.31
2019-02-26T04:57:59.480Z,1006.30
2019-02-26T04:58:59.541Z,1006.32
2019-02-26T05:00:01.312Z,1006.31
2019-02-26T05:01:00.315Z,1006.32
2019-02-26T05:01:59.388Z,1006.37
2019-02-26T05:02:59.590Z,1006.44
2019-02-26T05:03:59.446Z,1006.43
2019-02-26T05:04:59.501Z,1006.46
2019-02-26T05:06:00.186Z,1006.46
2019-02-26T05:06:59.412Z,1006.43
2019-02-26T05:08:07.672Z,1006.39
2019-02-26T05:09:02.886Z,1006.36
2019-02-26T05:10:01.858Z,1006.33
2019-02-26T05:11:00.021Z,1006.38
2019-02-26T05:12:00.444Z,1006.48
2019-02-26T05:13:09.914Z,1006.48
2019-02-26T05:13:59.400Z,1006.56
2019-02-26T05:14:59.305Z,1006.55
2019-02-26T05:15:59.676Z,1006.54
2019-02-26T05:16:59.313Z,1006.55
2019-02-26T05:17:59.936Z,1006.56
2019-02-26T05:19:00.845Z,1006.57
2019-02-26T05:19:59.930Z,1006.62
2019-02-26T05:21:05.265Z,1006.62
2019-02-26T05:22:01.398Z,1006.62
2019-02-26T05:23:01.031Z,1006.62
2019-02-26T05:24:00.160Z,1006.67
2019-02-26T05:24:59.843Z,1006.70
2019-02-26T05:26:02.949Z,1006.73
2019-02-26T05:26:59.046Z,1006.80
2019-02-26T05:27:59.469Z,1006.82
2019-02-26T05:30:40.362Z,1006.86
2019-02-26T05:31:40.229Z,1006.89
2019-02-26T05:32:39.602Z,1006.89
2019-02-26T05:33:39.123Z,1006.94
2019-02-26T05:34:39.845Z,1006.96
2019-02-26T05:35:43.039Z,1006.98
2019-02-26T05:36:40.300Z,1006.98
2019-02-26T05:37:40.986Z,1007.05
2019-02-26T05:38:39.294Z,1006.97
2019-02-26T05:39:40.678Z,1007.02
2019-02-26T05:40:42.250Z,1007.06
2019-02-26T05:41:40.524Z,1007.11
2019-02-26T05:42:39.742Z,1007.16
2019-02-26T05:43:40.727Z,1007.14
2019-02-26T05:44:39.093Z,1007.19
2019-02-26T05:45:39.029Z,1007.16
2019-02-26T05:46:39.705Z,1007.15
2019-02-26T05:47:38.910Z,1007.17
2019-02-26T05:48:40.075Z,1007.15
2019-02-26T05:49:40.792Z,1007.18
2019-02-26T05:50:41.307Z,1007.21
2019-02-26T05:51:38.834Z,1007.25
2019-02-26T05:52:39.786Z,1007.27
2019-02-26T05:53:38.893Z,1007.26
2019-02-26T05:54:57.846Z,1007.28
2019-02-26T05:56:34.058Z,1007.34
2019-02-26T05:57:32.765Z,1007.37
2019-02-26T05:58:36.043Z,1007.43
2019-02-26T05:59:33.750Z,1007.45
2019-02-26T06:00:33.393Z,1007.47
2019-02-26T06:01:32.098Z,1007.49
2019-02-26T06:02:31.963Z,1007.47
2019-02-26T06:03:32.146Z,1007.51
2019-02-26T06:04:35.057Z,1007.53
2019-02-26T06:05:34.668Z,1007.54
2019-02-26T06:06:32.178Z,1007.55
2019-02-26T06:07:35.559Z,1007.58
2019-02-26T06:08:39.228Z,1007.61
2019-02-26T06:09:33.859Z,1007.65
2019-02-26T06:10:32.605Z,1007.70
2019-02-26T06:11:35.680Z,1007.70
2019-02-26T06:12:32.607Z,1007.66
2019-02-26T06:13:38.254Z,1007.65
2019-02-26T06:14:33.123Z,1007.71
2019-02-26T06:15:34.064Z,1007.70
2019-02-26T06:16:31.827Z,1007.75
2019-02-26T06:17:31.866Z,1007.78
2019-02-26T06:18:31.764Z,1007.86
2019-02-26T06:19:34.291Z,1007.89
2019-02-26T06:20:33.985Z,1007.88
2019-02-26T06:21:31.696Z,1007.92
2019-02-26T06:22:34.553Z,1007.90
2019-02-26T06:23:36.737Z,1007.93
2019-02-26T06:24:33.173Z,1007.90
2019-02-26T06:25:31.551Z,1007.93
2019-02-26T06:26:33.374Z,1007.94
2019-02-26T06:27:31.955Z,1007.87
2019-02-26T06:28:35.503Z,1007.89
2019-02-26T06:29:35.086Z,1007.87
2019-02-26T06:30:32.259Z,1007.87
2019-02-26T06:31:31.471Z,1007.95
2019-02-26T06:32:34.269Z,1008.00
2019-02-26T06:33:34.087Z,1008.06
2019-02-26T06:34:36.309Z,1008.06
2019-02-26T06:35:33.768Z,1008.09
2019-02-26T06:36:53.461Z,1008.08
2019-02-26T06:37:33.846Z,1008.09
2019-02-26T06:38:32.780Z,1008.06
2019-02-26T06:39:33.981Z,1008.05
2019-02-26T06:40:34.524Z,1008.06
2019-02-26T06:41:34.215Z,1008.06
2019-02-26T06:42:33.219Z,1008.07
2019-02-26T06:43:45.646Z,1008.03
2019-02-26T06:45:33.307Z,1008.02
2019-02-26T06:46:31.929Z,1008.01
2019-02-26T06:47:33.201Z,1008.05
2019-02-26T06:48:32.333Z,1008.03
2019-02-26T06:49:31.410Z,1008.06
2019-02-26T06:50:31.830Z,1008.04
2019-02-26T06:51:31.547Z,1008.09
2019-02-26T06:52:35.088Z,1008.12
2019-02-26T06:53:31.362Z,1008.12
2019-02-26T06:54:31.803Z,1008.12
2019-02-26T06:55:31.694Z,1008.13
2019-02-26T06:56:34.476Z,1008.14
2019-02-26T06:57:38.830Z,1008.11
2019-02-26T06:58:40.430Z,1008.14
2019-02-26T06:59:34.471Z,1008.07
2019-02-26T07:00:32.279Z,1008.07
2019-02-26T07:01:32.756Z,1008.07
2019-02-26T07:02:31.825Z,1008.04
2019-02-26T07:03:31.061Z,1008.03
2019-02-26T07:04:31.787Z,1008.07
2019-02-26T07:05:31.780Z,1008.15
2019-02-26T07:07:31.128Z,1008.18
2019-02-26T07:08:31.169Z,1008.25
2019-02-26T07:09:32.423Z,1008.30
2019-02-26T07:10:33.650Z,1008.37
2019-02-26T07:11:33.145Z,1008.37
2019-02-26T07:12:33.462Z,1008.45
2019-02-26T07:13:33.761Z,1008.46
2019-02-26T07:15:33.474Z,1008.45
2019-02-26T07:16:32.916Z,1008.46
2019-02-26T07:17:33.787Z,1008.46
2019-02-26T07:18:33.790Z,1008.52
2019-02-26T07:19:36.330Z,1008.51
2019-02-26T07:21:33.807Z,1008.46
2019-02-26T07:22:34.403Z,1008.46
2019-02-26T07:24:30.815Z,1008.51
2019-02-26T07:25:31.791Z,1008.54
2019-02-26T07:26:30.867Z,1008.56
2019-02-26T07:27:32.009Z,1008.59
2019-02-26T07:28:31.343Z,1008.59
2019-02-26T07:29:32.833Z,1008.64
2019-02-26T07:30:35.334Z,1008.62
2019-02-26T07:31:47.320Z,1008.62
2019-02-26T07:32:32.317Z,1008.65
2019-02-26T07:33:34.641Z,1008.65
2019-02-26T07:34:30.602Z,1008.63
2019-02-26T07:36:30.925Z,1008.64
2019-02-26T07:37:34.038Z,1008.64
2019-02-26T07:38:30.813Z,1008.67
2019-02-26T07:39:32.926Z,1008.67
2019-02-26T07:40:32.915Z,1008.67
2019-02-26T07:41:30.693Z,1008.68
2019-02-26T07:42:32.764Z,1008.70
2019-02-26T07:43:31.351Z,1008.78
2019-02-26T07:44:32.310Z,1008.80
2019-02-26T07:45:34.234Z,1008.88
2019-02-26T07:46:30.603Z,1008.86
2019-02-26T07:47:38.443Z,1008.90
2019-02-26T07:48:33.665Z,1008.93
2019-02-26T07:49:46.392Z,1008.87
2019-02-26T07:50:37.356Z,1008.89
2019-02-26T07:51:31.734Z,1008.88
2019-02-26T07:52:31.273Z,1008.92
2019-02-26T07:53:44.385Z,1008.96
2019-02-26T07:54:33.497Z,1009.00
2019-02-26T07:55:32.792Z,1009.06
2019-02-26T07:56:44.764Z,1009.06
2019-02-26T07:57:30.331Z,1009.07
2019-02-26T07:58:35.977Z,1009.11
2019-02-26T07:59:32.425Z,1009.07
2019-02-26T08:00:30.508Z,1009.14
2019-02-26T08:01:30.579Z,1009.14
2019-02-26T08:02:32.082Z,1009.20
2019-02-26T08:03:30.450Z,1009.21
2019-02-26T08:05:32.500Z,1009.18
2019-02-26T08:06:31.667Z,1009.14
2019-02-26T08:07:32.199Z,1009.10
2019-02-26T08:08:42.053Z,1009.08
2019-02-26T08:09:32.025Z,1009.00
2019-02-26T08:11:53.109Z,1009.01
2019-02-26T08:12:32.864Z,1008.98
2019-02-26T08:13:40.443Z,1009.04
2019-02-26T08:15:35.637Z,1008.99
2019-02-26T08:17:55.410Z,1009.06
2019-02-26T08:18:31.879Z,1009.08
2019-02-26T08:19:30.763Z,1009.17
2019-02-26T08:20:33.008Z,1009.20
2019-02-26T08:23:01.336Z,1009.16
2019-02-26T08:23:54.536Z,1009.17
2019-02-26T08:24:55.423Z,1009.19
2019-02-26T08:26:52.389Z,1009.23
2019-02-26T08:28:52.118Z,1009.37
2019-02-26T08:29:54.697Z,1009.33
2019-02-26T08:30:52.904Z,1009.34
2019-02-26T08:31:54.516Z,1009.38
2019-02-26T08:32:54.304Z,1009.40
2019-02-26T08:33:52.279Z,1009.42
2019-02-26T08:34:52.490Z,1009.49
2019-02-26T08:35:55.502Z,1009.51
2019-02-26T08:36:53.880Z,1009.42
2019-02-26T08:37:53.505Z,1009.48
2019-02-26T08:38:56.375Z,1009.47
2019-02-26T08:39:52.053Z,1009.50
2019-02-26T08:41:14.455Z,1009.53
2019-02-26T08:41:52.290Z,1009.58
2019-02-26T08:42:54.947Z,1009.52
2019-02-26T08:44:15.280Z,1009.60
2019-02-26T08:44:58.122Z,1009.53
2019-02-26T08:45:52.059Z,1009.59
2019-02-26T08:46:58.763Z,1009.64
2019-02-26T08:48:22.266Z,1009.62
2019-02-26T08:48:55.880Z,1009.60
2019-02-26T08:49:51.666Z,1009.59
2019-02-26T08:51:09.039Z,1009.57
2019-02-26T08:51:55.631Z,1009.52
2019-02-26T08:53:12.762Z,1009.52
2019-02-26T08:53:54.684Z,1009.52
2019-02-26T08:54:53.414Z,1009.56
2019-02-26T08:55:53.609Z,1009.62
2019-02-26T08:56:58.850Z,1009.56
2019-02-26T08:57:56.415Z,1009.50
2019-02-26T08:58:51.717Z,1009.55
2019-02-26T08:59:52.272Z,1009.49
2019-02-26T09:00:51.583Z,1009.56
2019-02-26T09:01:52.623Z,1009.55
2019-02-26T09:03:01.373Z,1009.55
2019-02-26T09:03:55.814Z,1009.58
2019-02-26T09:04:51.593Z,1009.54
2019-02-26T09:05:53.943Z,1009.59
2019-02-26T09:06:54.683Z,1009.62
2019-02-26T09:07:51.614Z,1009.65
2019-02-26T09:08:52.337Z,1009.70
2019-02-26T09:10:03.477Z,1009.70
2019-02-26T09:11:08.643Z,1009.69
2019-02-26T09:12:15.123Z,1009.73
2019-02-26T09:12:52.380Z,1009.73
2019-02-26T09:13:56.341Z,1009.76
2019-02-26T09:15:06.194Z,1009.75
2019-02-26T09:15:51.654Z,1009.78
2019-02-26T09:16:52.564Z,1009.81
2019-02-26T09:17:52.253Z,1009.80
2019-02-26T09:18:51.715Z,1009.86
2019-02-26T09:19:56.051Z,1009.86
2019-02-26T09:20:52.514Z,1009.86
2019-02-26T09:21:52.477Z,1009.87
2019-02-26T09:22:54.590Z,1009.93
2019-02-26T09:23:54.931Z,1009.98
2019-02-26T09:24:54.460Z,1009.98
2019-02-26T09:25:54.073Z,1010.00
2019-02-26T09:26:54.929Z,1010.04
2019-02-26T09:27:51.406Z,1010.03
2019-02-26T09:28:54.836Z,1010.03
2019-02-26T09:29:51.630Z,1010.05
2019-02-26T09:31:58.907Z,1010.05
2019-02-26T09:32:52.513Z,1010.08
2019-02-26T09:33:54.086Z,1010.06
2019-02-26T09:34:54.262Z,1010.05
2019-02-26T09:35:52.589Z,1010.02
2019-02-26T09:36:55.548Z,1010.06
2019-02-26T09:38:03.866Z,1010.08
2019-02-26T09:38:54.025Z,1010.08
2019-02-26T09:39:53.865Z,1010.05
2019-02-26T09:40:52.429Z,1010.06
2019-02-26T09:42:13.211Z,1010.13
2019-02-26T09:42:54.386Z,1010.16
2019-02-26T09:43:53.568Z,1010.18
2019-02-26T09:44:53.053Z,1010.20
2019-02-26T09:45:52.945Z,1010.22
2019-02-26T09:46:50.999Z,1010.26
2019-02-26T09:47:52.693Z,1010.28
2019-02-26T09:48:51.499Z,1010.25
2019-02-26T09:49:51.607Z,1010.27
2019-02-26T09:50:50.964Z,1010.34
2019-02-26T09:51:51.551Z,1010.30
2019-02-26T09:52:52.673Z,1010.31
2019-02-26T09:53:59.004Z,1010.37
2019-02-26T09:54:52.832Z,1010.34
2019-02-26T09:55:51.009Z,1010.41
2019-02-26T09:56:51.154Z,1010.40
2019-02-26T09:57:50.947Z,1010.49
2019-02-26T09:59:58.147Z,1010.43
2019-02-26T10:00:58.312Z,1010.45
2019-02-26T10:01:53.757Z,1010.44
2019-02-26T10:02:52.692Z,1010.37
2019-02-26T10:04:28.456Z,1010.43
2019-02-26T10:04:51.886Z,1010.40
2019-02-26T10:06:13.618Z,1010.46
2019-02-26T10:06:51.815Z,1010.52
2019-02-26T10:08:12.835Z,1010.56
2019-02-26T10:08:56.094Z,1010.58
2019-02-26T10:10:06.468Z,1010.59
2019-02-26T10:11:16.093Z,1010.60
2019-02-26T10:11:51.764Z,1010.61
2019-02-26T10:12:51.786Z,1010.70
2019-02-26T10:13:57.587Z,1010.65
2019-02-26T10:14:52.332Z,1010.66
2019-02-26T10:15:51.847Z,1010.69
2019-02-26T10:16:56.878Z,1010.68
2019-02-26T10:17:51.387Z,1010.69
2019-02-26T10:18:52.385Z,1010.67
2019-02-26T10:19:51.036Z,1010.70
2019-02-26T10:20:52.270Z,1010.73
2019-02-26T10:21:52.076Z,1010.71
2019-02-26T10:22:52.498Z,1010.73
2019-02-26T10:23:52.169Z,1010.79
2019-02-26T10:25:06.842Z,1010.86
2019-02-26T10:25:53.344Z,1010.88
2019-02-26T10:26:51.196Z,1010.90
2019-02-26T10:28:08.818Z,1010.91
2019-02-26T10:28:57.266Z,1010.87
2019-02-26T10:29:50.487Z,1010.93
2019-02-26T10:30:54.417Z,1010.87
2019-02-26T10:31:50.792Z,1010.92
2019-02-26T10:32:50.503Z,1010.95
2019-02-26T10:34:50.370Z,1010.98
2019-02-26T10:35:51.141Z,1010.97
2019-02-26T10:36:51.870Z,1011.00
2019-02-26T10:37:54.227Z,1010.96
2019-02-26T10:38:57.603Z,1011.00
2019-02-26T10:40:00.315Z,1011.02
2019-02-26T10:40:53.927Z,1011.02
2019-02-26T10:41:57.339Z,1011.04
2019-02-26T10:42:54.274Z,1010.98
2019-02-26T10:43:52.190Z,1010.98
2019-02-26T10:44:50.337Z,1011.04
2019-02-26T10:45:56.207Z,1011.02
2019-02-26T10:47:11.332Z,1011.09
2019-02-26T10:48:52.403Z,1011.06
2019-02-26T10:49:51.885Z,1011.07
2019-02-26T10:50:52.157Z,1011.09
2019-02-26T10:51:50.486Z,1011.10
2019-02-26T10:53:01.448Z,1011.11
2019-02-26T10:53:51.149Z,1011.10
2019-02-26T10:54:50.127Z,1011.11
2019-02-26T10:55:50.656Z,1011.12
2019-02-26T10:56:54.069Z,1011.17
2019-02-26T10:57:50.161Z,1011.21
2019-02-26T10:58:54.747Z,1011.22
2019-02-26T10:59:51.817Z,1011.22
2019-02-26T11:00:52.587Z,1011.25
2019-02-26T11:01:52.322Z,1011.25
2019-02-26T11:02:51.000Z,1011.28
2019-02-26T11:03:52.837Z,1011.26
2019-02-26T11:04:52.712Z,1011.23
2019-02-26T11:06:25.631Z,1011.29
2019-02-26T11:07:08.457Z,1011.25
2019-02-26T11:07:52.548Z,1011.27
2019-02-26T11:08:51.165Z,1011.39
2019-02-26T11:09:53.020Z,1011.41
2019-02-26T11:10:53.656Z,1011.42
2019-02-26T11:11:49.847Z,1011.43
2019-02-26T11:12:50.517Z,1011.47
2019-02-26T11:13:53.773Z,1011.46
2019-02-26T11:14:56.108Z,1011.42
2019-02-26T11:15:51.645Z,1011.39
2019-02-26T11:16:49.837Z,1011.44
2019-02-26T11:17:53.611Z,1011.49
2019-02-26T11:18:49.755Z,1011.52
2019-02-26T11:19:50.035Z,1011.50
2019-02-26T11:22:27.423Z,1011.54
2019-02-26T11:22:52.059Z,1011.51
2019-02-26T11:23:51.701Z,1011.53
2019-02-26T11:26:24.971Z,1011.47
2019-02-26T11:27:22.886Z,1011.54
2019-02-26T11:28:27.309Z,1011.55
2019-02-26T11:29:22.724Z,1011.52
2019-02-26T11:31:25.479Z,1011.52
2019-02-26T11:32:22.726Z,1011.54
2019-02-26T11:34:25.484Z,1011.55
2019-02-26T11:37:08.515Z,1011.61
2019-02-26T11:37:59.035Z,1011.62
2019-02-26T11:39:01.238Z,1011.62
2019-02-26T11:39:57.700Z,1011.64
2019-02-26T11:40:58.876Z,1011.64
2019-02-26T11:42:59.901Z,1011.80
2019-02-26T11:43:58.886Z,1011.81
2019-02-26T11:44:57.561Z,1011.81
2019-02-26T11:46:01.483Z,1011.77
2019-02-26T11:47:57.994Z,1011.73
2019-02-26T11:48:58.917Z,1011.75
2019-02-26T11:50:05.216Z,1011.83
2019-02-26T11:51:01.519Z,1011.94
2019-02-26T11:51:57.291Z,1011.85
2019-02-26T11:52:59.367Z,1011.87
2019-02-26T11:54:14.395Z,1011.92
2019-02-26T11:54:58.720Z,1011.98
2019-02-26T11:55:59.877Z,1011.99
2019-02-26T11:56:59.852Z,1011.93
2019-02-26T11:57:57.326Z,1012.00
2019-02-26T11:59:06.555Z,1011.99
2019-02-26T12:00:06.805Z,1012.04
2019-02-26T12:01:54.226Z,1012.01
2019-02-26T12:02:50.637Z,1011.99
2019-02-26T12:03:50.887Z,1011.99
2019-02-26T12:04:50.964Z,1012.00
2019-02-26T12:05:54.209Z,1012.01
2019-02-26T12:06:50.500Z,1011.97
2019-02-26T12:08:14.164Z,1012.01
2019-02-26T12:08:53.247Z,1012.00
2019-02-26T12:10:05.951Z,1011.98
2019-02-26T12:10:52.271Z,1011.98
2019-02-26T12:12:00.917Z,1012.01
2019-02-26T12:13:14.673Z,1011.99
2019-02-26T12:13:54.160Z,1012.01
2019-02-26T12:15:12.360Z,1011.99
2019-02-26T12:17:19.752Z,1011.96
2019-02-26T12:17:54.146Z,1011.98
2019-02-26T12:18:52.138Z,1011.96
2019-02-26T12:19:51.515Z,1011.91
2019-02-26T12:20:52.246Z,1011.89
2019-02-26T12:21:51.866Z,1011.91
2019-02-26T12:22:55.201Z,1011.93
2019-02-26T12:23:50.368Z,1011.94
2019-02-26T12:24:53.013Z,1011.98
2019-02-26T12:25:52.566Z,1011.99
2019-02-26T12:26:52.502Z,1012.01
2019-02-26T12:27:54.092Z,1012.01
2019-02-26T12:28:52.379Z,1012.02
2019-02-26T12:29:54.379Z,1012.09
2019-02-26T12:31:52.761Z,1012.05
2019-02-26T12:33:07.275Z,1012.03
2019-02-26T12:33:51.469Z,1011.99
2019-02-26T12:34:51.473Z,1012.02
2019-02-26T12:35:50.569Z,1011.97
2019-02-26T12:37:52.755Z,1011.96
2019-02-26T12:38:59.184Z,1012.02
2019-02-26T12:39:57.730Z,1012.01
2019-02-26T12:40:53.407Z,1012.03
2019-02-26T12:41:51.347Z,1012.02
2019-02-26T12:42:51.085Z,1012.08
2019-02-26T12:43:52.958Z,1012.10
2019-02-26T12:44:50.289Z,1012.11
2019-02-26T12:46:04.516Z,1012.15